Monday, June 18, 2018, 8:42 PM EDT
Back to Local

KDKK, Chautauqua County/dunkirk

Location: Dunkirk, NY, United States Lat: 42.5
Local Time: 8:42 PM EDT ( 0:42 GMT) Lon: -79.283
Time Zone: US/Eastern Elev: 692 ft

Show me the last for .
Show Decoded

2018-06-18 20:07 METAR KDKK 190007Z AUTO 23005KT 4SM -RA BR SCT007 BKN043 OVC110 21/21 A2985 RMK
                 AO2 LTG DSNT SE AND S P0000 T02110211 =
2018-06-18 20:03 METAR KDKK 190003Z AUTO 23005KT 4SM -RA BR BKN007 BKN043 OVC100 21/21 A2985 RMK
                 AO2 LTG DSNT SE AND S CIG 003V020 PRESFR P0000 T02110206 =
2018-06-18 19:53 METAR KDKK 182353Z AUTO 24011KT 5SM VCTS -RA BR BKN004 OVC015 21/21 A2987 RMK
                 AO2 PK WND 24026/2308 LTG DSNT E-SW TSB33E48 SLP109 P0027 60028 T02110206 10294
                 20211 55001 =
2018-06-18 19:33 METAR KDKK 182333Z AUTO 27009G18KT 4SM TSRA BR BKN004 BKN014 OVC029 21/21 A2987
                 RMK AO2 PK WND 24026/2308 LTG DSNT ALQDS TSB33 P0025 T02110206 =
2018-06-18 19:26 METAR KDKK 182326Z AUTO 24007G18KT 4SM VCTS RA BR BKN008 OVC027 22/21 A2988 RMK
                 AO2 PK WND 24026/2308 LTG DSNT N AND SW P0023 T02170211 =
2018-06-18 19:23 METAR KDKK 182323Z AUTO 26010G22KT 3SM VCTS RA BR SCT010 BKN024 OVC048 22/21
                 A2988 RMK AO2 PK WND 24026/2308 LTG DSNT N AND SW P0022 T02170211 =
2018-06-18 19:00 METAR KDKK 182300Z AUTO 34004KT 2 1/2SM VCTS -RA BR BKN049 BKN055 OVC110 22/21
                 A2985 RMK AO2 LTG DSNT ALQDS P0001 T02220211 =
2018-06-18 18:53 METAR KDKK 182253Z AUTO 33004KT 4SM -RA BR SCT048 BKN060 OVC110 23/21 A2985 RMK
                 AO2 LTG DSNT W-NE RAB16 SLP102 P0001 T02280211 =
2018-06-18 17:53 METAR KDKK 182153Z AUTO 32009KT 9SM BKN060 BKN075 OVC090 24/21 A2986 RMK AO2 LTG
                 DSNT NW SLP106 T02440206 =
2018-06-18 16:53 METAR KDKK 182053Z AUTO 28009KT 8SM CLR 25/21 A2987 RMK AO2 WSHFT 1941 SLP109
                 T02500206 58014 =
2018-06-18 16:01 METAR KDKK 182001Z AUTO 33013G18KT 8SM CLR 26/21 A2989 RMK AO2 WSHFT 1941
                 T02560211 =
2018-06-18 15:53 METAR KDKK 181953Z AUTO 25012G19KT 9SM CLR 27/21 A2989 RMK AO2 WSHFT 1925 SLP117
                 T02670211 =
2018-06-18 15:45 METAR KDKK 181945Z AUTO 25011KT 7SM CLR 25/21 A2989 RMK AO2 WSHFT 1925 T02500211
                 =
2018-06-18 14:53 METAR KDKK 181853Z AUTO 24012G26KT 9SM CLR 28/22 A2991 RMK AO2 PK WND 23027/1804
                 LTG DSNT N AND NW SLP122 T02780217 =
2018-06-18 13:53 METAR KDKK 181753Z AUTO 24017G26KT 9SM CLR 29/22 A2991 RMK AO2 PK WND 24027/1657
                 SLP122 60000 T02940222 10300 20272 58016 =
2018-06-18 12:53 METAR KDKK 181653Z AUTO 24015G26KT 10SM CLR 29/22 A2993 RMK AO2 PK WND
                 23029/1634 RAB41E48 SLP129 P0000 T02940222 =
2018-06-18 11:53 METAR KDKK 181553Z AUTO 23017G27KT 10SM CLR 29/23 A2995 RMK AO2 PK WND
                 23030/1516 SLP138 T02890228 =
2018-06-18 10:53 METAR KDKK 181453Z AUTO 24016G25KT 10SM CLR 29/23 A2996 RMK AO2 PK WND
                 23027/1425 SLP140 T02890228 58001 =
2018-06-18 09:53 METAR KDKK 181353Z AUTO 23016G26KT 10SM CLR 28/22 A2996 RMK AO2 PK WND
                 24026/1351 SLP140 T02830222 =
2018-06-18 08:53 METAR KDKK 181253Z AUTO 24012G22KT 10SM CLR 29/22 A2997 RMK AO2 SLP142 T02890222
                 =
2018-06-18 07:53 METAR KDKK 181153Z AUTO 23010KT 10SM BKN055 27/22 A2996 RMK AO2 SLP141 T02720217
                 10278 20250 50001 =
2018-06-18 06:53 METAR KDKK 181053Z AUTO 19009KT 10SM CLR 26/21 A2997 RMK AO2 SLP142 T02560211 =
2018-06-18 05:53 METAR KDKK 180953Z AUTO 20009KT 10SM CLR 25/21 A2996 RMK AO2 SLP141 T02500206 =
2018-06-18 04:53 METAR KDKK 180853Z AUTO 19010KT 10SM CLR 26/21 A2996 RMK AO2 SLP140 T02560206
                 58010 =
2018-06-18 03:53 METAR KDKK 180753Z AUTO 19010KT 10SM CLR 26/20 A2997 RMK AO2 SLP143 T02560200 =
2018-06-18 02:53 METAR KDKK 180653Z AUTO 20011KT 10SM BKN065 BKN080 27/19 A2998 RMK AO2 SLP148
                 T02670194 =
2018-06-18 01:53 METAR KDKK 180553Z AUTO 19012KT 10SM CLR 27/18 A2999 RMK AO2 SLP151 T02670183
                 10272 20222 58005 =
2018-06-18 00:53 METAR KDKK 180453Z AUTO 20010KT 10SM CLR 26/19 A3000 RMK AO2 SLP153 T02610189
                 402940144 =
2018-06-17 23:53 METAR KDKK 180353Z AUTO 20010KT 10SM CLR 26/19 A3000 RMK AO2 SLP155 T02560189 =
2018-06-17 22:53 METAR KDKK 180253Z AUTO 21007KT 10SM CLR 25/19 A3001 RMK AO2 SLP156 T02500194
                 53001 =
2018-06-17 21:53 METAR KDKK 180153Z AUTO 21003KT 10SM CLR 24/20 A3000 RMK AO2 SLP153 T02390200 =
2018-06-17 20:53 METAR KDKK 180053Z AUTO 19003KT 10SM CLR 23/20 A2999 RMK AO2 SLP150 T02330200 =

Support USWX by starting your Amazon purchase here.